Weather observations for the past three days for
Pohnpei Island
Imperial (Metric)
Date Time (+11) Wind (mph) Vis. (mi.) Weather Sky Cond. Temperature (ºF) Relative Humidity Wind Chill (°F) Heat Index (°F) Pressure Precipitation (in)
Air Dwpt 6 hour altimeter (in) sea level (mb) 1 hr 3 hr 6 hr
Max. Min.
31 13:55 SW 12 15.00 Mostly Cloudy SCT018 BKN130 84.2 77 79% 94 29.84 0.0
31 12:50 SW 14 12.00 Light Showers Rain BKN018CB OVC130 84.2 78.8 84% 96 29.86 0.0
31 11:52 W 8 15.00 Overcast SCT018 BKN130 OVC300 84.2 78.8 84% 96 29.86 0.0
31 10:53 W 12 15.00 Overcast SCT018CB BKN130 OVC300 82.4 78.8 89% 92 29.88 0.0
31 09:54 W 12 15.00 Mostly Cloudy SCT018 BKN130 BKN300 87.8 77 70% 100 29.88 0.0
31 08:55 SW 6 15.00 Mostly Cloudy SCT017 SCT130 BKN300 84.2 78.8 84% 96 29.87 0.0
31 07:59 W 6 15.00 Mostly Cloudy SCT017 BKN130 BKN300 84.2 78.8 84% 96 29.87 0.0
31 00:57 SW 6 13.00 Overcast BKN017TCU OVC130 78.8 77 94% 83 29.83 0.0
30 23:52 S 9 13.00 Overcast BKN017TCU OVC130 78.8 77 94% 83 29.83 0.0
30 22:57 S 8 13.00 Overcast BKN016TCU OVC110 78.8 77 94% 83 29.82 0.0
30 21:51 SW 7 10.00 Light Rain BKN016CB OVC110 78.8 77 94% 83 29.83 0.0
30 20:53 SW 5 10.00 Light Showers Rain BKN016CB OVC110 77 75.2 94% 78 29.83 0.0
30 19:55 W 10 10.00 Light Showers Rain BKN016CB OVC110 75.2 75.2 100% 73 29.83 0.0
30 18:58 SW 12 7.00 Light Showers Rain BKN016TCU OVC110 75.2 75.2 100% 73 29.81 0.0
30 17:53 SW 12 3.00 Light Showers Rain BKN016CB OVC110 75.2 75.2 100% 73 29.83 0.0
30 17:18 W 16 G 24 3.00 Light Showers Rain BKN016CB OVC110 77 75.2 94% 78 29.83 0.0
30 13:56 SW 7 7.00 Light Showers Rain BKN016CB OVC130 82.4 78.8 89% 92 29.8 0.0
30 12:52 SW 17 10.00 Light Showers Rain BKN016CB OVC130 82.4 78.8 89% 92 29.83 0.0
30 11:52 W 12 15.00 Overcast BKN016CB OVC130 82.4 78.8 89% 92 29.82 0.0
30 10:55 W 12 13.00 Overcast BKN016CB OVC130 82.4 78.8 89% 92 29.83 0.0
30 09:54 W 12 11.00 Light Showers Rain BKN016CB OVC130 80.6 78.8 94% 88 29.84 0.0
30 08:54 W 15 3.00 Light Showers Rain BKN016CB OVC130 77 75.2 94% 78 29.85 0.0
30 08:31 NW 20 1.50 Light Showers Rain BKN016CB OVC130 77 75.2 94% 78 29.85 0.0
29 14:50 SW 7 15.00 Overcast SCT018 BKN130 OVC300 87.8 77 70% 100 29.77 0.0
29 13:50 W 6 15.00 Overcast SCT018 BKN130 OVC300 87.8 78.8 75% 102 29.78 0.0
29 12:54 SW 9 15.00 Overcast SCT018TCU BKN130 OVC300 87.8 78.8 75% 102 29.79 0.0
29 11:53 SW 12 15.00 Overcast SCT018 SCT130 OVC300 87.8 78.8 75% 102 29.81 0.0
29 10:52 SW 10 15.00 Mostly Cloudy SCT018 BKN300 87.8 78.8 75% 102 29.83 0.0
29 09:50 SW 12 15.00 Mostly Cloudy SCT018 BKN300 86 78.8 79% 99 29.83 0.0
29 08:54 SW 6 15.00 Overcast SCT018 OVC300 82.4 77 84% 91 29.85 0.0
28 15:52 SW 7 15.00 Mostly Cloudy SCT018TCU BKN300 87.8 78.8 75% 102 29.79 0.0
Date Time (+11) Wind (mph) Vis. (mi.) Weather Sky Cond. Air Dwpt Max. Min. Relative Humidity Wind Chill (°F) Heat Index (°F) altimeter (in) sea level (mb) 1 hr 3 hr 6 hr
6 hour
Temperature (ºF) Pressure Precipitation (in)